createdAt,value
2018-02-09T00:00:57.781Z,3.55
2018-02-09T00:03:25.581Z,3.80
2018-02-09T00:05:53.128Z,3.37
2018-02-09T00:08:20.668Z,3.60
2018-02-09T00:10:48.185Z,3.70
2018-02-09T00:13:15.728Z,3.40
2018-02-09T00:15:43.321Z,3.80
2018-02-09T00:18:12.149Z,3.87
2018-02-09T00:20:40.100Z,3.45
2018-02-09T00:23:08.862Z,3.53
2018-02-09T00:25:37.660Z,3.58
2018-02-09T00:28:06.255Z,3.17
2018-02-09T00:30:34.966Z,3.20
2018-02-09T00:33:04.744Z,3.10
2018-02-09T00:35:33.124Z,3.30
2018-02-09T00:38:03.285Z,3.10
2018-02-09T00:40:32.713Z,3.90
2018-02-09T00:43:01.245Z,3.37
2018-02-09T00:45:29.337Z,3.22
2018-02-09T00:47:57.409Z,3.95
2018-02-09T00:50:24.966Z,3.05
2018-02-09T00:52:52.552Z,3.78
2018-02-09T00:55:20.097Z,3.40
2018-02-09T00:57:47.656Z,3.30
2018-02-09T01:00:15.857Z,4.10
2018-02-09T01:02:43.427Z,3.55
2018-02-09T01:05:11.352Z,3.28
2018-02-09T01:07:40.061Z,3.83
2018-02-09T01:10:09.868Z,3.47
2018-02-09T01:12:38.684Z,3.55
2018-02-09T01:15:07.124Z,3.35
2018-02-09T01:17:36.090Z,3.60
2018-02-09T01:20:04.597Z,3.80
2018-02-09T01:22:33.198Z,3.55
2018-02-09T01:25:01.460Z,3.80
2018-02-09T01:27:29.448Z,4.00
2018-02-09T01:29:58.014Z,4.07
2018-02-09T01:32:25.982Z,3.90
2018-02-09T01:34:53.556Z,3.80
2018-02-09T01:37:21.090Z,3.78
2018-02-09T01:39:48.604Z,4.43
2018-02-09T01:42:16.155Z,3.85
2018-02-09T01:44:43.964Z,4.00
2018-02-09T01:47:11.900Z,4.47
2018-02-09T01:49:40.153Z,4.20
2018-02-09T01:52:08.309Z,4.00
2018-02-09T01:54:38.129Z,4.22
2018-02-09T01:57:08.523Z,4.10
2018-02-09T01:59:38.134Z,3.60
2018-02-09T02:02:07.249Z,3.72
2018-02-09T02:04:38.622Z,3.53
2018-02-09T02:07:08.663Z,4.05
2018-02-09T02:09:36.821Z,3.58
2018-02-09T02:12:06.074Z,4.68
2018-02-09T02:14:35.296Z,4.12
2018-02-09T02:17:04.677Z,3.67
2018-02-09T02:19:33.790Z,3.87
2018-02-09T02:22:02.580Z,4.00
2018-02-09T02:24:30.482Z,3.75
2018-02-09T02:26:59.532Z,4.05
2018-02-09T02:29:27.526Z,4.37
2018-02-09T02:31:55.189Z,4.65
2018-02-09T02:34:24.086Z,4.18
2018-02-09T02:36:51.604Z,4.95
2018-02-09T02:39:19.131Z,3.92
2018-02-09T02:41:47.772Z,3.92
2018-02-09T02:44:15.429Z,4.05
2018-02-09T02:46:43.368Z,4.32
2018-02-09T02:49:12.084Z,4.50
2018-02-09T02:51:40.277Z,4.80
2018-02-09T02:54:09.718Z,5.00
2018-02-09T02:56:39.644Z,5.20
2018-02-09T02:59:07.455Z,5.60
2018-02-09T03:01:35.626Z,5.43
2018-02-09T03:04:05.084Z,6.50
2018-02-09T03:06:33.761Z,5.93
2018-02-09T03:09:02.930Z,5.82
2018-02-09T03:11:35.711Z,6.10
2018-02-09T03:14:10.489Z,7.05
2018-02-09T03:16:41.404Z,6.20
2018-02-09T03:19:12.181Z,7.20
2018-02-09T03:21:42.562Z,7.03
2018-02-09T03:24:13.955Z,7.43
2018-02-09T03:26:44.319Z,7.82
2018-02-09T03:29:13.022Z,7.05
2018-02-09T03:31:42.530Z,7.80
2018-02-09T03:34:13.042Z,8.15
2018-02-09T03:36:42.346Z,7.43
2018-02-09T03:39:13.344Z,7.20
2018-02-09T03:41:43.074Z,8.30
2018-02-09T03:44:11.968Z,7.70
2018-02-09T03:46:43.172Z,8.95
2018-02-09T03:49:13.395Z,8.35
2018-02-09T03:51:44.082Z,8.02
2018-02-09T03:54:13.970Z,7.68
2018-02-09T03:56:43.154Z,7.80
2018-02-09T03:59:13.931Z,8.05
2018-02-09T04:01:43.187Z,8.75
2018-02-09T04:04:12.690Z,8.52
2018-02-09T04:06:43.247Z,9.27
2018-02-09T04:09:13.324Z,8.55
2018-02-09T04:11:43.927Z,9.00
2018-02-09T04:14:13.503Z,9.00
2018-02-09T04:16:43.307Z,8.85
2018-02-09T04:19:13.311Z,8.73
2018-02-09T04:21:42.895Z,8.23
2018-02-09T04:24:13.919Z,9.02
2018-02-09T04:26:44.266Z,9.20
2018-02-09T04:29:13.415Z,9.48
2018-02-09T04:31:42.633Z,8.52
2018-02-09T04:34:11.771Z,8.85
2018-02-09T04:36:42.724Z,9.10
2018-02-09T04:39:13.215Z,9.02
2018-02-09T04:41:42.536Z,9.23
2018-02-09T04:44:12.349Z,8.68
2018-02-09T04:46:42.338Z,7.45
2018-02-09T04:49:11.852Z,8.98
2018-02-09T04:51:41.609Z,8.43
2018-02-09T04:54:11.231Z,8.77
2018-02-09T04:56:41.419Z,9.18
2018-02-09T04:59:11.707Z,8.98
2018-02-09T05:01:41.884Z,8.63
2018-02-09T05:04:12.976Z,8.68
2018-02-09T05:06:44.020Z,8.25
2018-02-09T05:09:13.338Z,8.38
2018-02-09T05:11:42.378Z,10.25
2018-02-09T05:14:13.027Z,9.32
2018-02-09T05:16:42.299Z,8.80
2018-02-09T05:19:11.749Z,8.82
2018-02-09T05:21:44.028Z,9.43
2018-02-09T05:24:14.814Z,9.82
2018-02-09T05:26:43.391Z,9.68
2018-02-09T05:29:12.691Z,9.18
2018-02-09T05:31:43.270Z,9.93
2018-02-09T05:34:14.023Z,9.07
2018-02-09T05:36:43.451Z,8.98
2018-02-09T05:39:17.429Z,8.70
2018-02-09T05:41:45.837Z,10.02
2018-02-09T05:44:13.671Z,10.50
2018-02-09T05:46:44.372Z,11.55
2018-02-09T05:49:15.043Z,11.27
2018-02-09T05:51:45.191Z,10.95
2018-02-09T05:54:14.904Z,11.43
2018-02-09T05:56:44.573Z,12.43
2018-02-09T05:59:12.165Z,11.73
2018-02-09T06:01:43.422Z,11.80
2018-02-09T06:04:14.342Z,10.93
2018-02-09T06:06:49.318Z,11.07
2018-02-09T06:09:17.191Z,11.52
2018-02-09T06:11:44.723Z,11.23
2018-02-09T06:14:12.968Z,11.43
2018-02-09T06:16:41.130Z,11.98
2018-02-09T06:19:09.464Z,13.18
2018-02-09T06:21:41.209Z,15.25
2018-02-09T06:24:12.349Z,17.83
2018-02-09T06:26:43.024Z,22.17
2018-02-09T06:29:13.195Z,36.05
2018-02-09T06:31:43.503Z,16.37
2018-02-09T06:34:14.307Z,13.30
2018-02-09T06:36:43.235Z,13.95
2018-02-09T06:39:12.061Z,16.17
2018-02-09T06:41:41.727Z,15.63
2018-02-09T06:44:12.286Z,14.82
2018-02-09T06:46:41.404Z,16.55
2018-02-09T06:49:09.978Z,16.10
2018-02-09T06:51:39.121Z,17.48
2018-02-09T06:54:08.145Z,15.85
2018-02-09T06:56:37.585Z,17.30
2018-02-09T06:59:07.899Z,19.25
2018-02-09T07:01:37.891Z,17.75
2018-02-09T07:04:08.938Z,17.15
2018-02-09T07:06:38.432Z,22.10
2018-02-09T07:09:08.464Z,20.52
2018-02-09T07:11:38.292Z,20.88
2018-02-09T07:14:08.668Z,21.25
2018-02-09T07:16:39.257Z,20.55
2018-02-09T07:19:08.439Z,21.08
2018-02-09T07:21:37.777Z,21.08
2018-02-09T07:24:07.091Z,16.85
2018-02-09T07:26:36.098Z,22.98
2018-02-09T07:29:05.788Z,21.80
2018-02-09T07:31:35.350Z,22.85
2018-02-09T07:34:06.475Z,23.12
2018-02-09T07:36:36.700Z,26.58
2018-02-09T07:39:06.984Z,23.92
2018-02-09T07:41:36.958Z,25.83
2018-02-09T07:44:06.879Z,24.50
2018-02-09T07:46:37.795Z,25.05
2018-02-09T07:49:06.603Z,24.35
2018-02-09T07:51:36.952Z,25.80
2018-02-09T07:54:05.696Z,25.58
2018-02-09T07:56:36.437Z,26.67
2018-02-09T07:59:06.206Z,28.20
2018-02-09T08:01:36.408Z,24.85
2018-02-09T08:04:05.369Z,26.40
2018-02-09T08:06:36.367Z,25.52
2018-02-09T08:09:07.122Z,24.48
2018-02-09T08:11:36.585Z,25.67
2018-02-09T08:14:06.780Z,26.33
2018-02-09T08:16:37.813Z,26.17
2018-02-09T08:19:07.613Z,26.67
2018-02-09T08:21:38.059Z,25.47
2018-02-09T08:24:08.260Z,25.90
2018-02-09T08:26:39.015Z,29.25
2018-02-09T08:29:08.755Z,25.88
2018-02-09T08:31:37.586Z,26.07
2018-02-09T08:34:06.650Z,27.40
2018-02-09T08:36:37.143Z,28.07
2018-02-09T08:39:07.368Z,25.80
2018-02-09T08:41:37.068Z,27.17
2018-02-09T08:44:06.218Z,25.53
2018-02-09T08:46:37.271Z,26.37
2018-02-09T08:49:07.515Z,26.00
2018-02-09T08:51:37.744Z,22.50
2018-02-09T08:54:07.878Z,24.73
2018-02-09T08:56:38.235Z,26.43
2018-02-09T08:59:08.379Z,24.33
2018-02-09T09:01:37.954Z,25.43
2018-02-09T09:04:07.940Z,24.63
2018-02-09T09:06:38.300Z,25.67
2018-02-09T09:09:07.918Z,24.90
2018-02-09T09:11:37.890Z,26.27
2018-02-09T09:14:07.388Z,25.67
2018-02-09T09:16:36.518Z,23.53
2018-02-09T09:19:06.781Z,24.90
2018-02-09T09:21:35.983Z,24.50
2018-02-09T09:24:06.269Z,24.90
2018-02-09T09:26:37.082Z,23.50
2018-02-09T09:29:06.650Z,24.10
2018-02-09T09:31:37.413Z,23.50
2018-02-09T09:34:07.087Z,23.20
2018-02-09T09:36:36.497Z,19.70
2018-02-09T09:39:05.624Z,22.73
2018-02-09T09:41:35.930Z,22.27
2018-02-09T09:44:04.301Z,22.00
2018-02-09T09:46:33.487Z,21.10
2018-02-09T09:49:02.351Z,21.77
2018-02-09T09:51:30.334Z,20.73
2018-02-09T09:53:58.035Z,20.17
2018-02-09T09:56:26.392Z,20.47
2018-02-09T09:58:54.741Z,18.27
2018-02-09T10:01:28.065Z,17.93
2018-02-09T10:03:56.897Z,20.87
2018-02-09T10:06:25.538Z,18.57
2018-02-09T10:08:53.287Z,18.83
2018-02-09T10:11:20.875Z,18.87
2018-02-09T10:13:48.908Z,19.07
2018-02-09T10:16:16.437Z,19.23
2018-02-09T10:18:43.991Z,18.03
2018-02-09T10:21:12.347Z,18.10
2018-02-09T10:23:40.398Z,17.97
2018-02-09T10:26:08.818Z,18.67
2018-02-09T10:28:38.234Z,18.53
2018-02-09T10:31:10.535Z,17.50
2018-02-09T10:33:39.677Z,15.27
2018-02-09T10:36:08.945Z,16.37
2018-02-09T10:38:38.179Z,17.60
2018-02-09T10:41:07.437Z,17.50
2018-02-09T10:43:38.196Z,16.80
2018-02-09T10:46:07.303Z,18.10
2018-02-09T10:48:37.046Z,17.47
2018-02-09T10:51:06.523Z,18.43
2018-02-09T10:53:34.594Z,19.03
2018-02-09T10:56:04.653Z,19.07
2018-02-09T10:58:34.744Z,18.83
2018-02-09T11:01:06.508Z,16.93
2018-02-09T11:03:35.384Z,17.40
2018-02-09T11:06:06.161Z,19.10
2018-02-09T11:08:35.346Z,17.33
2018-02-09T11:11:08.183Z,17.53
2018-02-09T11:13:37.862Z,17.10
2018-02-09T11:16:06.554Z,17.83
2018-02-09T11:18:35.575Z,18.17
2018-02-09T11:21:05.344Z,19.03
2018-02-09T11:23:33.732Z,17.80
2018-02-09T11:26:01.797Z,18.40
2018-02-09T11:28:30.237Z,19.23
2018-02-09T11:30:59.367Z,18.90
2018-02-09T11:33:28.562Z,18.60
2018-02-09T11:35:57.430Z,18.83
2018-02-09T11:38:26.135Z,17.17
2018-02-09T11:40:53.717Z,18.90
2018-02-09T11:43:21.351Z,18.00
2018-02-09T11:45:48.866Z,17.10
2018-02-09T11:48:16.378Z,17.90
2018-02-09T11:50:43.922Z,17.37
2018-02-09T11:53:12.339Z,17.10
2018-02-09T11:55:42.109Z,17.97
2018-02-09T11:58:10.431Z,17.33
2018-02-09T12:00:39.222Z,18.10
2018-02-09T12:03:08.327Z,17.03
2018-02-09T12:05:37.453Z,17.43
2018-02-09T12:08:05.585Z,16.80
2018-02-09T12:10:36.927Z,18.53
2018-02-09T12:13:07.988Z,18.10
2018-02-09T12:15:37.572Z,18.13
2018-02-09T12:18:07.199Z,17.90
2018-02-09T12:20:35.435Z,17.07
2018-02-09T12:23:05.026Z,17.13
2018-02-09T12:25:33.138Z,17.70
2018-02-09T12:28:00.744Z,17.47
2018-02-09T12:30:28.531Z,17.17
2018-02-09T12:32:56.802Z,18.80
2018-02-09T12:35:24.364Z,17.60
2018-02-09T12:37:51.887Z,17.33
2018-02-09T12:40:19.394Z,17.43
2018-02-09T12:42:46.932Z,18.10
2018-02-09T12:45:15.101Z,17.00
2018-02-09T12:47:43.706Z,17.97
2018-02-09T12:50:12.891Z,17.37
2018-02-09T12:52:41.843Z,17.37
2018-02-09T12:55:10.155Z,16.13
2018-02-09T12:57:39.195Z,15.03
2018-02-09T13:00:09.044Z,17.03
2018-02-09T13:02:39.799Z,15.33
2018-02-09T13:05:08.781Z,15.50
2018-02-09T13:07:39.282Z,15.13
2018-02-09T13:10:08.288Z,14.97
2018-02-09T13:12:48.806Z,15.50
2018-02-09T13:15:16.860Z,16.13
2018-02-09T13:17:45.277Z,16.50
2018-02-09T13:20:14.032Z,15.17
2018-02-09T13:22:54.424Z,15.33
2018-02-09T13:25:21.987Z,14.37
2018-02-09T13:27:50.251Z,14.40
2018-02-09T13:30:17.812Z,13.97
2018-02-09T13:32:57.083Z,14.87
2018-02-09T13:35:24.618Z,12.97
2018-02-09T13:37:52.135Z,13.73
2018-02-09T13:40:19.781Z,14.87
2018-02-09T13:42:47.319Z,12.60
2018-02-09T13:45:15.425Z,13.07
2018-02-09T13:47:43.352Z,12.40
2018-02-09T13:50:13.177Z,13.97
2018-02-09T13:52:44.166Z,14.77
2018-02-09T13:55:12.465Z,13.70
2018-02-09T13:57:41.886Z,12.80
2018-02-09T14:00:10.999Z,12.83
2018-02-09T14:02:40.059Z,12.43
2018-02-09T14:05:09.870Z,12.17
2018-02-09T14:07:38.115Z,12.40
2018-02-09T14:10:07.832Z,12.83
2018-02-09T14:12:37.887Z,11.47
2018-02-09T14:15:07.919Z,12.73
2018-02-09T14:17:37.669Z,13.27
2018-02-09T14:20:07.854Z,11.93
2018-02-09T14:22:38.350Z,11.47
2018-02-09T14:25:08.684Z,12.23
2018-02-09T14:27:39.615Z,12.17
2018-02-09T14:30:08.362Z,10.73
2018-02-09T14:32:38.132Z,11.93
2018-02-09T14:35:07.202Z,11.53
2018-02-09T14:37:36.162Z,12.40
2018-02-09T14:40:06.497Z,11.87
2018-02-09T14:42:37.874Z,12.07
2018-02-09T14:45:08.491Z,10.60
2018-02-09T14:47:38.595Z,11.63
2018-02-09T14:50:09.088Z,13.77
2018-02-09T14:52:38.866Z,11.40
2018-02-09T14:55:08.637Z,11.90
2018-02-09T14:57:38.289Z,10.63
2018-02-09T15:00:08.674Z,11.97
2018-02-09T15:02:37.428Z,11.57
2018-02-09T15:05:06.565Z,11.27
2018-02-09T15:07:36.443Z,12.13
2018-02-09T15:10:04.895Z,10.97
2018-02-09T15:12:34.805Z,11.57
2018-02-09T15:15:07.592Z,12.10
2018-02-09T15:17:39.973Z,12.43
2018-02-09T15:20:09.531Z,12.17
2018-02-09T15:22:40.748Z,14.90
2018-02-09T15:25:10.201Z,10.83
2018-02-09T15:27:40.192Z,10.73
2018-02-09T15:30:09.075Z,11.87
2018-02-09T15:32:40.014Z,11.10
2018-02-09T15:35:09.727Z,10.77
2018-02-09T15:37:39.633Z,10.83
2018-02-09T15:40:09.365Z,11.50
2018-02-09T15:42:39.526Z,10.63
2018-02-09T15:45:08.687Z,11.47
2018-02-09T15:47:40.006Z,11.17
2018-02-09T15:50:10.112Z,11.40
2018-02-09T15:52:39.512Z,11.27
2018-02-09T15:55:09.408Z,12.07
2018-02-09T15:57:38.904Z,11.47
2018-02-09T16:00:10.323Z,11.40
2018-02-09T16:02:41.292Z,10.80
2018-02-09T16:05:10.426Z,11.17
2018-02-09T16:07:41.938Z,11.90
2018-02-09T16:10:12.139Z,11.43
2018-02-09T16:12:42.061Z,10.43
2018-02-09T16:15:11.737Z,9.90
2018-02-09T16:17:41.143Z,13.07
2018-02-09T16:20:10.037Z,10.50
2018-02-09T16:22:39.859Z,11.53
2018-02-09T16:25:11.008Z,10.13
2018-02-09T16:27:40.979Z,11.27
2018-02-09T16:30:11.235Z,9.93
2018-02-09T16:35:38.335Z,11.73
2018-02-09T16:38:08.799Z,10.30
2018-02-09T16:40:39.298Z,12.43
2018-02-09T16:43:08.973Z,10.87
2018-02-09T16:45:38.242Z,12.63
2018-02-09T16:48:07.246Z,10.90
2018-02-09T16:50:39.307Z,12.87
2018-02-09T16:53:09.467Z,9.87
2018-02-09T16:55:38.136Z,11.10
2018-02-09T16:58:07.404Z,9.67
2018-02-09T17:00:39.926Z,13.83
2018-02-09T17:03:10.257Z,10.20
2018-02-09T17:05:58.683Z,10.03
2018-02-09T17:08:27.076Z,10.73
2018-02-09T17:10:54.801Z,11.70
2018-02-09T17:13:23.716Z,11.40
2018-02-09T17:15:52.281Z,11.63
2018-02-09T17:18:19.812Z,10.20
2018-02-09T17:20:47.378Z,10.00
2018-02-09T17:23:14.911Z,9.17
2018-02-09T17:25:44.062Z,64.63
2018-02-09T17:28:12.198Z,12.87
2018-02-09T17:30:42.562Z,19.20
2018-02-09T17:33:12.650Z,15.33
2018-02-09T17:35:42.096Z,10.50
2018-02-09T17:38:10.738Z,9.87
2018-02-09T17:40:40.242Z,11.83
2018-02-09T17:43:09.118Z,10.80
2018-02-09T17:45:41.745Z,8.87
2018-02-09T17:48:10.802Z,10.87
2018-02-09T17:50:40.374Z,11.23
2018-02-09T17:53:08.755Z,12.60
2018-02-09T17:55:39.090Z,10.50
2018-02-09T17:58:09.899Z,9.77
2018-02-09T18:00:39.299Z,10.63
2018-02-09T18:03:09.152Z,11.00
2018-02-09T18:05:38.043Z,11.63
2018-02-09T18:08:07.463Z,11.07
2018-02-09T18:10:35.720Z,11.93
2018-02-09T18:13:08.602Z,10.77
2018-02-09T18:15:39.156Z,10.53
2018-02-09T18:18:07.932Z,13.57
2018-02-09T18:20:38.758Z,17.20
2018-02-09T18:23:20.419Z,13.30
2018-02-09T18:28:42.034Z,14.27
2018-02-09T18:31:11.479Z,11.63
2018-02-09T18:33:39.774Z,9.00
2018-02-09T18:36:09.178Z,10.63
2018-02-09T18:38:38.254Z,10.33
2018-02-09T18:41:07.940Z,10.47
2018-02-09T18:43:38.277Z,10.33
2018-02-09T18:46:08.259Z,10.70
2018-02-09T18:48:37.130Z,10.00
2018-02-09T18:51:07.899Z,9.13
2018-02-09T18:53:37.256Z,10.20
2018-02-09T18:56:06.661Z,11.03
2018-02-09T18:58:36.551Z,9.00
2018-02-09T19:01:04.451Z,10.53
2018-02-09T19:03:32.706Z,10.43
2018-02-09T19:06:00.681Z,10.23
2018-02-09T19:08:29.476Z,10.73
2018-02-09T19:10:58.832Z,9.70
2018-02-09T19:13:26.475Z,9.80
2018-02-09T19:15:54.000Z,9.37
2018-02-09T19:18:21.556Z,9.43
2018-02-09T19:20:49.398Z,10.67
2018-02-09T19:23:17.681Z,10.67
2018-02-09T19:25:45.226Z,10.73
2018-02-09T19:28:13.533Z,9.90
2018-02-09T19:30:41.095Z,10.90
2018-02-09T19:33:09.733Z,11.03
2018-02-09T19:35:38.231Z,10.93
2018-02-09T19:38:06.082Z,11.20
2018-02-09T19:40:37.538Z,11.23
2018-02-09T19:43:05.323Z,10.97
2018-02-09T19:45:33.090Z,11.33
2018-02-09T19:48:00.690Z,11.67
2018-02-09T19:50:28.715Z,10.63
2018-02-09T19:52:57.167Z,10.93
2018-02-09T19:55:26.332Z,12.07
2018-02-09T19:57:54.191Z,12.30
2018-02-09T20:00:21.691Z,11.83
2018-02-09T20:02:49.247Z,12.40
2018-02-09T20:05:16.776Z,12.00
2018-02-09T20:07:44.311Z,12.07
2018-02-09T20:10:12.231Z,12.43
2018-02-09T20:12:40.875Z,13.43
2018-02-09T20:15:08.595Z,12.60
2018-02-09T20:17:36.764Z,14.40
2018-02-09T20:20:04.663Z,12.73
2018-02-09T20:22:36.044Z,12.37
2018-02-09T20:25:05.880Z,13.60
2018-02-09T20:27:37.714Z,12.27
2018-02-09T20:30:06.137Z,12.83
2018-02-09T20:32:34.783Z,13.63
2018-02-09T20:35:04.590Z,12.30
2018-02-09T20:37:34.903Z,12.70
2018-02-09T20:40:02.546Z,12.70
2018-02-09T20:42:31.320Z,13.83
2018-02-09T20:44:59.524Z,13.17
2018-02-09T20:47:27.061Z,13.40
2018-02-09T20:49:54.602Z,15.60
2018-02-09T20:52:22.913Z,14.00
2018-02-09T20:54:50.487Z,12.93
2018-02-09T20:57:18.024Z,14.27
2018-02-09T20:59:46.315Z,12.00
2018-02-09T21:02:14.620Z,16.53
2018-02-09T21:04:42.482Z,13.33
2018-02-09T21:07:10.897Z,13.23
2018-02-09T21:09:40.022Z,12.43
2018-02-09T21:12:08.800Z,13.27
2018-02-09T21:14:37.054Z,12.53
2018-02-09T21:17:07.567Z,11.80
2018-02-09T21:19:35.622Z,13.53
2018-02-09T21:22:05.603Z,12.53
2018-02-09T21:24:36.141Z,12.47
2018-02-09T21:27:09.843Z,12.13
2018-02-09T21:29:40.706Z,11.67
2018-02-09T21:32:09.524Z,11.70
2018-02-09T21:34:37.236Z,12.17
2018-02-09T21:37:06.208Z,11.60
2018-02-09T21:39:36.133Z,10.60
2018-02-09T21:42:06.679Z,11.47
2018-02-09T21:44:35.700Z,11.97
2018-02-09T21:47:08.373Z,11.70
2018-02-09T21:49:37.364Z,12.57
2018-02-09T21:52:06.708Z,12.47
2018-02-09T21:54:37.734Z,12.10
2018-02-09T21:57:07.595Z,12.87
2018-02-09T21:59:38.616Z,13.57
2018-02-09T22:02:08.527Z,11.83
2018-02-09T22:04:39.389Z,12.13
2018-02-09T22:07:07.946Z,13.37
2018-02-09T22:09:39.048Z,13.20
2018-02-09T22:12:08.306Z,13.00
2018-02-09T22:14:36.467Z,12.30
2018-02-09T22:17:06.174Z,12.40
2018-02-09T22:19:34.122Z,13.70
2018-02-09T22:22:05.369Z,13.60
2018-02-09T22:24:35.965Z,13.50
2018-02-09T22:27:05.196Z,13.00
2018-02-09T22:29:35.315Z,13.40
2018-02-09T22:32:06.110Z,13.97
2018-02-09T22:34:34.584Z,14.43
2018-02-09T22:37:02.476Z,14.87
2018-02-09T22:39:30.123Z,13.67
2018-02-09T22:41:57.655Z,15.17
2018-02-09T22:44:25.180Z,14.83
2018-02-09T22:46:52.721Z,15.63
2018-02-09T22:49:20.268Z,17.70
2018-02-09T22:51:47.827Z,18.17
2018-02-09T22:54:15.355Z,18.80
2018-02-09T22:56:42.906Z,15.97
2018-02-09T22:59:10.738Z,18.57
2018-02-09T23:01:39.148Z,15.97
2018-02-09T23:04:06.845Z,15.23
2018-02-09T23:06:35.312Z,16.97
2018-02-09T23:09:03.719Z,17.40
2018-02-09T23:11:34.828Z,21.93
2018-02-09T23:14:12.367Z,17.53
2018-02-09T23:16:43.094Z,16.33
2018-02-09T23:19:12.557Z,20.60
2018-02-09T23:21:41.932Z,16.43
2018-02-09T23:24:09.531Z,15.67
2018-02-09T23:26:37.130Z,15.80
2018-02-09T23:29:05.018Z,15.03
2018-02-09T23:31:32.858Z,14.47
2018-02-09T23:34:00.411Z,19.10
2018-02-09T23:36:27.981Z,15.90
2018-02-09T23:38:55.514Z,15.90
2018-02-09T23:41:23.041Z,17.20
2018-02-09T23:43:50.601Z,15.87
2018-02-09T23:46:18.126Z,15.93
2018-02-09T23:48:45.676Z,16.00
2018-02-09T23:51:13.216Z,15.93
2018-02-09T23:53:42.820Z,17.67
2018-02-09T23:56:10.440Z,17.30
2018-02-09T23:58:38.880Z,18.30
